Terminal Aerodrome Forecast
Issued by NWS

Home | Current Version | Previous Version | Text Only | Print | Product List | Glossary On
Versions: 1 2 3 4 5 6 7 8 9 10 11 12 13 14 15 16 17 18 19 20 21 22
000
FTUS45 KTFX 010500
TAFHVR
TAF
KHVR 010523Z 0106/0206 04008KT 3SM -SN BKN035 OVC060
     FM010700 04006KT P6SM SCT150
     FM011100 VRB05KT 2SM BR OVC005
     FM011700 12005KT P6SM BKN250
     FM020300 VRB06KT P6SM VCSH SCT030 BKN050=

USA.gov is the U.S. government's official web portal to all federal, state and local government web resources and services.